Time;durP1;ratioP1;P1;durP2;ratioP2;P2;SDS_P1;SDS_P2;PMS_P1;PMS_P2;Temp;Humidity;BMP_temperature;BMP_pressure;BME280_temperature;BME280_humidity;BME280_pressure;Samples;Min_cycle;Max_cycle;Signal;HPM_P1;HPM_P2
2021/07/04 00:00:30;;;;;;;33.40;18.77;;;16.30;99.90;;;;;;5067391;28;20231;-67
2021/07/04 00:03:00;;;;;;;34.67;19.70;;;16.20;99.90;;;;;;5065677;28;20725;-68
2021/07/04 00:05:32;;;;;;;35.00;20.57;;;16.20;99.90;;;;;;5065462;28;20195;-67
2021/07/04 00:08:01;;;;;;;39.63;19.83;;;16.20;99.90;;;;;;5067369;28;20239;-68
2021/07/04 00:10:33;;;;;;;41.80;21.60;;;16.20;99.90;;;;;;5066277;28;20194;-68
2021/07/04 00:13:04;;;;;;;36.00;20.83;;;16.20;99.90;;;;;;5067937;28;20208;-68
2021/07/04 00:15:39;;;;;;;33.93;19.73;;;16.10;99.90;;;;;;5063990;28;20651;-68
2021/07/04 00:18:09;;;;;;;31.03;18.40;;;16.10;99.90;;;;;;5064612;28;20211;-67
2021/07/04 00:20:38;;;;;;;30.50;19.43;;;16.10;99.90;;;;;;5068700;28;20715;-68
2021/07/04 00:23:06;;;;;;;31.57;18.60;;;16.00;99.90;;;;;;5065915;28;20224;-68
2021/07/04 00:25:35;;;;;;;34.13;20.57;;;16.00;99.90;;;;;;5066357;28;20567;-68
2021/07/04 00:28:06;;;;;;;35.17;21.40;;;16.00;99.90;;;;;;5068335;28;20246;-67
2021/07/04 00:30:35;;;;;;;41.27;21.97;;;16.00;99.90;;;;;;5068859;28;20694;-68
2021/07/04 00:33:08;;;;;;;37.60;21.60;;;16.00;99.90;;;;;;5066928;28;20262;-68
2021/07/04 00:35:37;;;;;;;36.53;21.20;;;16.00;99.90;;;;;;5067259;28;20189;-68
2021/07/04 00:38:07;;;;;;;35.87;20.37;;;16.00;99.90;;;;;;5064465;28;20192;-67
2021/07/04 00:40:40;;;;;;;41.23;22.67;;;16.00;99.90;;;;;;5065296;28;20193;-68
2021/07/04 00:43:10;;;;;;;40.70;22.10;;;16.00;99.90;;;;;;5067035;28;20192;-68
2021/07/04 00:45:39;;;;;;;42.10;22.03;;;16.00;99.90;;;;;;5067067;28;20184;-68
2021/07/04 00:48:08;;;;;;;36.70;21.27;;;15.90;99.90;;;;;;5067927;28;20675;-68
2021/07/04 00:50:37;;;;;;;40.13;21.37;;;15.90;99.90;;;;;;5066467;28;20536;-67
2021/07/04 00:53:06;;;;;;;38.23;21.10;;;15.90;99.90;;;;;;5067131;28;20211;-68
2021/07/04 00:55:35;;;;;;;39.03;21.43;;;15.90;99.90;;;;;;5065636;28;20694;-68
2021/07/04 00:58:04;;;;;;;34.57;21.13;;;15.90;99.90;;;;;;5070072;28;20797;-68
2021/07/04 01:00:35;;;;;;;29.47;18.60;;;15.90;99.90;;;;;;5069522;28;20200;-66
2021/07/04 01:03:04;;;;;;;34.73;18.43;;;15.90;99.90;;;;;;5067148;28;20218;-68
2021/07/04 01:05:35;;;;;;;29.77;18.63;;;15.90;99.90;;;;;;5066364;28;20232;-68
2021/07/04 01:08:05;;;;;;;31.83;18.37;;;15.80;99.90;;;;;;5071499;28;20265;-68
2021/07/04 01:10:35;;;;;;;32.00;19.07;;;15.80;99.90;;;;;;5068676;28;20607;-68
2021/07/04 01:13:07;;;;;;;27.93;18.13;;;15.80;99.90;;;;;;5062908;28;20204;-68
2021/07/04 01:15:37;;;;;;;30.70;19.23;;;15.80;99.90;;;;;;5067564;28;20290;-68
2021/07/04 01:18:07;;;;;;;31.53;18.33;;;15.80;99.90;;;;;;5067120;28;20245;-67
2021/07/04 01:20:37;;;;;;;33.40;20.23;;;15.80;99.90;;;;;;5071422;28;20192;-68
2021/07/04 01:23:08;;;;;;;35.60;20.67;;;15.80;99.90;;;;;;5084275;28;20250;-68
2021/07/04 01:25:40;;;;;;;34.27;19.17;;;15.80;99.90;;;;;;5069985;28;20262;-68
2021/07/04 01:28:09;;;;;;;32.70;18.60;;;15.80;99.90;;;;;;5068830;28;20200;-68
2021/07/04 01:30:38;;;;;;;28.40;17.77;;;15.80;99.90;;;;;;5067283;28;20305;-67
2021/07/04 01:33:07;;;;;;;34.13;19.87;;;15.80;99.90;;;;;;5069340;28;20196;-68
2021/07/04 01:35:36;;;;;;;29.13;17.50;;;15.80;99.90;;;;;;5071452;28;20599;-68
2021/07/04 01:38:05;;;;;;;28.80;17.80;;;15.80;99.90;;;;;;5069463;28;20242;-68
2021/07/04 01:40:34;;;;;;;28.93;17.30;;;15.80;99.90;;;;;;5069767;28;20676;-68
2021/07/04 01:43:03;;;;;;;33.00;18.50;;;15.90;99.90;;;;;;5064438;28;20227;-68
2021/07/04 01:45:32;;;;;;;23.87;16.83;;;15.90;99.90;;;;;;5071385;28;20280;-68
2021/07/04 01:48:00;;;;;;;31.93;18.97;;;15.90;99.90;;;;;;5069355;28;20674;-68
2021/07/04 01:50:31;;;;;;;30.60;17.47;;;15.90;99.90;;;;;;5070479;28;20192;-68
2021/07/04 01:53:00;;;;;;;29.30;18.50;;;15.90;99.90;;;;;;5070241;28;20278;-68
2021/07/04 01:55:30;;;;;;;27.93;17.50;;;15.90;99.90;;;;;;5068432;28;20257;-67
2021/07/04 01:57:59;;;;;;;32.63;17.80;;;15.90;99.90;;;;;;5069535;28;20192;-68
2021/07/04 02:00:30;;;;;;;27.70;17.97;;;15.90;99.90;;;;;;5068019;28;20196;-68
2021/07/04 02:02:59;;;;;;;25.37;16.17;;;15.90;99.90;;;;;;5063918;28;20197;-68
2021/07/04 02:05:28;;;;;;;33.10;19.00;;;15.90;99.90;;;;;;5068331;28;20238;-68
2021/07/04 02:07:57;;;;;;;30.63;18.03;;;16.00;99.90;;;;;;5067764;28;20249;-68
2021/07/04 02:10:28;;;;;;;32.50;18.13;;;16.00;99.90;;;;;;5068137;28;20228;-67
2021/07/04 02:12:59;;;;;;;28.63;18.10;;;16.00;99.90;;;;;;5069426;28;20251;-67
2021/07/04 02:15:30;;;;;;;27.87;16.67;;;16.10;99.90;;;;;;5070676;28;20257;-68
2021/07/04 02:18:04;;;;;;;27.20;17.00;;;16.10;99.90;;;;;;5070171;28;20216;-68
2021/07/04 02:20:36;;;;;;;27.27;17.77;;;16.10;99.90;;;;;;5066573;28;20238;-68
2021/07/04 02:23:07;;;;;;;30.00;18.23;;;16.10;99.90;;;;;;5067693;28;20585;-68
2021/07/04 02:25:36;;;;;;;31.50;18.60;;;16.10;99.90;;;;;;5069224;28;20215;-68
2021/07/04 02:28:07;;;;;;;31.97;18.73;;;16.20;99.90;;;;;;5062153;28;20234;-67
2021/07/04 02:30:36;;;;;;;28.73;18.27;;;16.20;99.90;;;;;;5070663;28;20745;-67
2021/07/04 02:33:06;;;;;;;26.90;18.23;;;16.20;99.90;;;;;;5064452;28;20282;-68
2021/07/04 02:35:37;;;;;;;30.80;19.60;;;16.20;99.90;;;;;;5069990;28;20218;-67
2021/07/04 02:38:06;;;;;;;34.60;20.93;;;16.20;99.90;;;;;;5065836;28;20219;-68
2021/07/04 02:40:36;;;;;;;32.60;19.03;;;16.30;99.90;;;;;;5068640;28;20192;-68
2021/07/04 02:43:07;;;;;;;32.97;19.70;;;16.20;99.90;;;;;;5068853;28;20219;-68
2021/07/04 02:45:36;;;;;;;29.90;18.43;;;16.20;99.90;;;;;;5070205;28;20283;-68
2021/07/04 02:48:05;;;;;;;30.23;18.67;;;16.20;99.90;;;;;;5069658;28;20246;-68
2021/07/04 02:50:34;;;;;;;29.27;17.77;;;16.10;99.90;;;;;;5069640;28;20339;-67
2021/07/04 02:53:02;;;;;;;27.13;17.07;;;16.10;99.90;;;;;;5067755;28;20294;-69
2021/07/04 02:55:30;;;;;;;25.23;16.60;;;16.10;99.90;;;;;;5067005;28;20218;-68
2021/07/04 02:57:59;;;;;;;24.83;16.80;;;16.00;99.90;;;;;;5068155;28;20192;-68
2021/07/04 03:00:29;;;;;;;26.70;16.70;;;15.90;99.90;;;;;;5069600;28;20313;-67
2021/07/04 03:02:57;;;;;;;30.40;17.50;;;15.90;99.90;;;;;;5068501;28;20677;-68
2021/07/04 03:05:26;;;;;;;27.47;17.70;;;15.90;99.90;;;;;;5069660;28;20230;-68
2021/07/04 03:07:54;;;;;;;23.67;16.93;;;15.80;99.90;;;;;;5068091;28;20291;-68
2021/07/04 03:10:23;;;;;;;36.77;22.13;;;15.80;99.90;;;;;;5069118;28;20291;-68
2021/07/04 03:12:52;;;;;;;36.13;22.03;;;15.70;99.90;;;;;;5065940;28;20231;-68
2021/07/04 03:15:20;;;;;;;30.53;18.77;;;15.70;99.90;;;;;;5070368;28;20255;-68
2021/07/04 03:17:50;;;;;;;35.93;21.47;;;15.60;99.90;;;;;;5066582;28;20718;-68
2021/07/04 03:20:18;;;;;;;31.33;19.70;;;15.60;99.90;;;;;;5068117;28;20722;-68
2021/07/04 03:22:47;;;;;;;30.50;17.97;;;15.60;99.90;;;;;;5065950;28;20567;-68
2021/07/04 03:25:18;;;;;;;25.90;17.40;;;15.60;99.90;;;;;;5066774;28;20196;-68
2021/07/04 03:27:47;;;;;;;27.97;17.63;;;15.50;99.90;;;;;;5066889;28;20216;-68
2021/07/04 03:30:19;;;;;;;28.87;18.13;;;15.50;99.90;;;;;;5066903;28;20498;-68
2021/07/04 03:32:48;;;;;;;24.33;16.43;;;15.40;99.90;;;;;;5068113;28;20193;-67
2021/07/04 03:35:18;;;;;;;24.83;17.03;;;15.40;99.90;;;;;;5068310;28;20245;-67
2021/07/04 03:37:48;;;;;;;30.33;18.87;;;15.40;99.90;;;;;;5067056;28;20614;-68
2021/07/04 03:40:19;;;;;;;33.00;20.23;;;15.50;99.90;;;;;;5067941;28;20556;-68
2021/07/04 03:42:47;;;;;;;30.87;19.20;;;15.50;99.90;;;;;;5067342;28;20539;-68
2021/07/04 03:45:16;;;;;;;26.33;17.03;;;15.50;99.90;;;;;;5069908;28;20224;-68
2021/07/04 03:47:44;;;;;;;27.23;16.37;;;15.60;99.90;;;;;;5067419;28;20209;-68
2021/07/04 03:50:13;;;;;;;28.87;18.40;;;15.50;99.90;;;;;;5069113;28;20519;-68
2021/07/04 03:52:44;;;;;;;27.17;17.17;;;15.60;99.90;;;;;;5064670;28;20230;-67
2021/07/04 03:55:14;;;;;;;23.03;16.40;;;15.60;99.90;;;;;;5066613;28;20530;-68
2021/07/04 03:57:43;;;;;;;28.93;16.50;;;15.70;99.90;;;;;;5066886;28;20242;-68
2021/07/04 04:00:13;;;;;;;24.43;16.53;;;15.70;99.90;;;;;;5069238;28;20625;-68
2021/07/04 04:02:42;;;;;;;23.43;16.17;;;15.70;99.90;;;;;;5067694;28;20192;-68
2021/07/04 04:05:13;;;;;;;30.67;17.53;;;15.70;99.90;;;;;;5067411;28;20296;-68
2021/07/04 04:07:44;;;;;;;26.13;18.53;;;15.80;99.90;;;;;;5065463;28;22392;-68
2021/07/04 04:10:14;;;;;;;27.37;17.13;;;15.80;99.90;;;;;;5065800;28;20192;-68
2021/07/04 04:13:04;;;;;;;24.47;16.67;;;15.80;99.90;;;;;;5045073;28;20196;-68
2021/07/04 04:15:32;;;;;;;23.13;15.83;;;15.90;99.90;;;;;;5068087;28;20219;-67
2021/07/04 04:18:01;;;;;;;26.90;15.83;;;15.90;99.90;;;;;;5065928;28;20601;-68
2021/07/04 04:20:32;;;;;;;25.63;17.10;;;16.00;99.90;;;;;;5066421;28;21088;-67
2021/07/04 04:23:01;;;;;;;26.30;17.53;;;16.10;99.90;;;;;;5066597;28;20579;-68
2021/07/04 04:25:30;;;;;;;23.87;16.97;;;16.20;99.90;;;;;;5069729;28;20659;-68
2021/07/04 04:28:03;;;;;;;20.57;14.57;;;16.20;99.90;;;;;;5066416;28;20224;-68
2021/07/04 04:30:32;;;;;;;20.27;14.80;;;16.20;99.90;;;;;;5069518;28;20231;-68
2021/07/04 04:33:01;;;;;;;21.87;15.73;;;16.10;99.90;;;;;;5066551;28;20524;-68
2021/07/04 04:35:30;;;;;;;19.73;13.70;;;16.10;99.90;;;;;;5068835;28;20205;-68
2021/07/04 04:37:59;;;;;;;24.70;15.93;;;16.10;99.90;;;;;;5065013;28;20198;-68
2021/07/04 04:40:29;;;;;;;22.40;15.10;;;16.20;99.90;;;;;;5067431;28;20286;-68
2021/07/04 04:42:57;;;;;;;23.47;15.53;;;16.20;99.90;;;;;;5065592;28;20211;-68
2021/07/04 04:45:26;;;;;;;24.40;16.67;;;16.30;99.90;;;;;;5061516;28;20196;-68
2021/07/04 04:47:54;;;;;;;26.40;17.67;;;16.40;99.90;;;;;;5059585;28;20194;-68
2021/07/04 04:50:23;;;;;;;23.77;15.67;;;16.60;99.90;;;;;;5066699;28;20196;-68
2021/07/04 04:52:51;;;;;;;22.00;15.17;;;16.60;99.90;;;;;;5067338;28;20196;-68
2021/07/04 04:55:20;;;;;;;21.20;15.00;;;16.70;99.90;;;;;;5067677;28;20209;-68
2021/07/04 04:57:49;;;;;;;19.93;15.13;;;16.80;99.90;;;;;;5066420;28;20195;-68
2021/07/04 05:00:18;;;;;;;18.70;15.30;;;17.00;99.90;;;;;;5064705;28;20230;-68
2021/07/04 05:02:47;;;;;;;21.67;14.60;;;17.00;99.90;;;;;;5056178;28;20230;-68
2021/07/04 05:05:15;;;;;;;21.47;14.30;;;17.10;99.90;;;;;;5066714;28;20216;-69
2021/07/04 05:07:44;;;;;;;17.87;13.67;;;17.20;99.90;;;;;;5066158;28;20558;-68
2021/07/04 05:10:13;;;;;;;15.90;12.70;;;17.20;99.90;;;;;;5065485;28;20275;-69
2021/07/04 05:12:41;;;;;;;17.50;12.83;;;17.30;99.90;;;;;;5062768;28;20646;-69
2021/07/04 05:15:13;;;;;;;15.00;11.53;;;17.30;99.90;;;;;;5067156;28;20231;-68
2021/07/04 05:17:41;;;;;;;14.80;11.60;;;17.50;99.90;;;;;;5065209;28;20753;-68
2021/07/04 05:20:11;;;;;;;14.93;11.47;;;17.50;99.90;;;;;;5067261;28;20193;-69
2021/07/04 05:22:39;;;;;;;14.47;12.47;;;17.60;99.90;;;;;;5066336;28;20295;-69
2021/07/04 05:25:10;;;;;;;12.27;10.63;;;17.70;99.90;;;;;;5064738;28;20196;-68
2021/07/04 05:27:38;;;;;;;14.17;11.40;;;17.70;99.90;;;;;;5066492;28;20194;-69
2021/07/04 05:30:08;;;;;;;12.43;10.70;;;17.80;99.90;;;;;;5066205;28;20193;-68
2021/07/04 05:32:38;;;;;;;14.13;11.17;;;18.00;99.90;;;;;;5067958;28;20419;-68
2021/07/04 05:35:08;;;;;;;11.17;10.07;;;18.10;99.90;;;;;;5064737;28;20195;-69
2021/07/04 05:37:37;;;;;;;10.27;9.27;;;18.20;99.90;;;;;;5066010;28;20196;-68
2021/07/04 05:40:11;;;;;;;11.90;10.70;;;18.20;99.90;;;;;;5065033;28;20200;-69
2021/07/04 05:42:40;;;;;;;12.23;10.30;;;18.40;99.90;;;;;;5066402;28;20200;-69
2021/07/04 05:45:12;;;;;;;12.43;10.33;;;18.50;99.90;;;;;;5069334;28;20188;-66
2021/07/04 05:47:42;;;;;;;10.27;9.27;;;18.50;99.90;;;;;;5067288;28;20701;-66
2021/07/04 05:50:11;;;;;;;11.87;8.80;;;18.60;99.90;;;;;;5069241;28;20282;-66
2021/07/04 05:52:39;;;;;;;11.17;9.87;;;18.80;99.90;;;;;;5069072;28;20227;-66
2021/07/04 05:55:09;;;;;;;9.97;8.97;;;19.00;99.90;;;;;;5071347;28;20245;-66
2021/07/04 05:57:37;;;;;;;10.80;9.20;;;19.10;99.90;;;;;;5071616;28;20277;-66
2021/07/04 06:00:09;;;;;;;12.10;8.47;;;19.40;99.90;;;;;;5071210;28;20293;-66
2021/07/04 06:02:37;;;;;;;9.43;7.93;;;19.70;99.90;;;;;;5069648;28;20689;-66
2021/07/04 06:05:09;;;;;;;9.23;8.33;;;19.80;99.90;;;;;;5070046;28;20196;-66
2021/07/04 06:07:38;;;;;;;9.83;8.20;;;19.80;99.90;;;;;;5066046;28;20176;-66
2021/07/04 06:10:07;;;;;;;9.07;8.23;;;19.90;99.90;;;;;;5065477;28;20231;-66
2021/07/04 06:12:35;;;;;;;9.33;8.43;;;20.00;99.90;;;;;;5069226;28;20188;-66
2021/07/04 06:15:04;;;;;;;8.30;7.60;;;20.00;99.90;;;;;;5068446;28;20195;-66
2021/07/04 06:17:33;;;;;;;9.23;8.33;;;19.90;99.90;;;;;;5065104;28;20220;-66
2021/07/04 06:20:01;;;;;;;9.17;8.27;;;20.00;99.90;;;;;;5064100;28;20199;-66
2021/07/04 06:22:31;;;;;;;11.90;8.00;;;20.00;99.90;;;;;;5069486;28;20192;-66
2021/07/04 06:25:00;;;;;;;8.33;7.63;;;19.80;99.90;;;;;;5069359;28;20697;-66
2021/07/04 06:27:28;;;;;;;11.63;8.77;;;19.80;99.90;;;;;;5067286;28;20626;-66
2021/07/04 06:29:56;;;;;;;9.97;9.07;;;19.80;99.90;;;;;;5069701;28;20195;-66
2021/07/04 06:32:25;;;;;;;11.50;9.03;;;19.80;99.90;;;;;;5067302;28;20216;-66
2021/07/04 06:34:53;;;;;;;11.57;9.53;;;19.80;99.90;;;;;;5065135;28;20220;-66
2021/07/04 06:37:21;;;;;;;10.67;9.57;;;19.80;99.90;;;;;;5065136;28;20311;-66
2021/07/04 06:39:51;;;;;;;10.50;9.40;;;19.70;99.90;;;;;;5065060;28;20283;-66
2021/07/04 06:42:19;;;;;;;10.20;9.13;;;19.70;99.90;;;;;;5069083;28;20702;-66
2021/07/04 06:44:48;;;;;;;11.53;8.23;;;19.70;99.90;;;;;;5064156;28;20253;-66
2021/07/04 06:47:16;;;;;;;11.33;9.60;;;19.70;99.90;;;;;;5069364;28;20438;-68
2021/07/04 06:49:45;;;;;;;12.73;9.77;;;19.60;99.90;;;;;;5064910;28;20181;-68
2021/07/04 06:52:13;;;;;;;12.10;9.13;;;19.60;99.90;;;;;;5062387;28;20231;-68
2021/07/04 06:54:42;;;;;;;11.87;9.20;;;19.70;99.90;;;;;;5059696;28;20193;-68
2021/07/04 06:57:27;;;;;;;10.07;8.77;;;19.80;99.90;;;;;;5060881;28;20216;-68
2021/07/04 06:59:57;;;;;;;13.37;10.40;;;19.80;99.90;;;;;;5059164;28;20503;-69
2021/07/04 07:02:26;;;;;;;15.17;10.17;;;19.80;99.90;;;;;;5064180;28;20200;-69
2021/07/04 07:04:55;;;;;;;27.53;17.80;;;19.80;99.90;;;;;;5063277;28;20211;-68
2021/07/04 07:07:24;;;;;;;13.07;10.20;;;19.80;99.90;;;;;;5068657;28;20212;-69
2021/07/04 07:09:53;;;;;;;9.60;8.60;;;20.00;99.90;;;;;;5066673;28;20200;-69
2021/07/04 07:12:23;;;;;;;10.37;8.20;;;20.10;99.90;;;;;;5066519;28;20188;-69
2021/07/04 07:14:56;;;;;;;8.10;7.40;;;20.40;99.90;;;;;;5066401;28;20196;-68
2021/07/04 07:17:25;;;;;;;8.57;7.67;;;20.60;99.90;;;;;;5068733;28;20265;-69
2021/07/04 07:19:54;;;;;;;8.80;7.90;;;20.80;99.90;;;;;;5066724;28;20425;-69
2021/07/04 07:22:22;;;;;;;7.53;6.83;;;20.90;99.90;;;;;;5062287;28;20196;-69
2021/07/04 07:24:51;;;;;;;6.17;5.60;;;21.50;99.90;;;;;;5066898;28;20273;-68
2021/07/04 07:27:19;;;;;;;6.40;5.87;;;22.20;99.90;;;;;;5062699;28;20234;-69
2021/07/04 07:29:50;;;;;;;6.70;5.63;;;22.30;99.90;;;;;;5064338;28;20254;-68
2021/07/04 07:32:19;;;;;;;5.57;5.07;;;22.60;99.90;;;;;;5057497;28;20440;-69
2021/07/04 07:34:47;;;;;;;4.90;4.33;;;22.60;99.90;;;;;;5062954;28;20293;-68
2021/07/04 07:37:16;;;;;;;4.60;4.30;;;22.40;99.90;;;;;;5067481;28;20208;-69
2021/07/04 07:39:44;;;;;;;4.77;4.47;;;22.30;99.90;;;;;;5057045;28;20652;-68
2021/07/04 07:42:13;;;;;;;5.17;4.73;;;22.10;99.90;;;;;;5063422;28;20587;-69
2021/07/04 07:44:41;;;;;;;4.63;4.33;;;21.80;99.90;;;;;;5063551;28;20222;-68
2021/07/04 07:47:11;;;;;;;5.00;4.70;;;21.90;99.90;;;;;;5063685;28;20193;-68
2021/07/04 07:49:39;;;;;;;4.70;4.37;;;21.80;99.90;;;;;;5060452;28;20197;-68
2021/07/04 07:52:08;;;;;;;4.43;4.13;;;21.90;99.90;;;;;;5064144;28;20204;-69
2021/07/04 07:54:37;;;;;;;4.57;4.27;;;22.00;99.90;;;;;;5063633;28;20192;-68
2021/07/04 07:57:07;;;;;;;4.70;4.30;;;22.00;99.90;;;;;;5048441;28;20307;-68
2021/07/04 07:59:36;;;;;;;3.93;3.63;;;22.00;99.90;;;;;;5066086;28;20189;-69
2021/07/04 08:02:07;;;;;;;3.97;3.60;;;22.00;99.90;;;;;;5062102;28;20287;-68
2021/07/04 08:04:38;;;;;;;7.17;4.27;;;22.00;99.90;;;;;;5064483;28;20193;-66
2021/07/04 08:07:07;;;;;;;4.27;4.07;;;22.10;99.90;;;;;;5064386;28;20197;-66
2021/07/04 08:09:35;;;;;;;4.77;4.47;;;22.10;99.90;;;;;;5059129;28;20196;-66
2021/07/04 08:12:05;;;;;;;4.30;4.10;;;21.80;99.90;;;;;;5065026;28;20744;-66
2021/07/04 08:14:33;;;;;;;5.50;5.10;;;21.70;99.90;;;;;;5064862;28;20287;-68
2021/07/04 08:17:02;;;;;;;5.27;5.03;;;21.60;99.90;;;;;;5064210;28;20295;-68
2021/07/04 08:19:30;;;;;;;3.97;3.80;;;21.30;99.90;;;;;;5065595;28;20278;-68
2021/07/04 08:22:00;;;;;;;3.73;3.53;;;21.10;99.90;;;;;;5067178;28;20203;-69
2021/07/04 08:24:29;;;;;;;7.20;4.63;;;21.10;99.90;;;;;;5063582;28;20238;-68
2021/07/04 08:26:57;;;;;;;5.40;4.90;;;21.20;99.90;;;;;;5063554;28;20238;-68
2021/07/04 08:29:26;;;;;;;5.97;4.77;;;21.10;99.90;;;;;;5064149;28;20228;-69
2021/07/04 08:31:57;;;;;;;4.90;4.60;;;21.00;99.90;;;;;;5064726;28;20231;-68
2021/07/04 08:34:25;;;;;;;4.90;4.47;;;20.90;99.90;;;;;;5063786;28;20269;-68
2021/07/04 08:36:54;;;;;;;5.10;4.70;;;20.90;99.90;;;;;;5065397;28;20223;-68
2021/07/04 08:39:23;;;;;;;4.80;4.50;;;21.00;99.90;;;;;;5066108;28;20189;-68
2021/07/04 08:41:52;;;;;;;4.33;4.03;;;21.00;99.90;;;;;;5066552;28;20204;-68
2021/07/04 08:44:20;;;;;;;4.67;4.37;;;21.00;99.90;;;;;;5065463;28;20196;-69
2021/07/04 08:46:48;;;;;;;4.77;4.47;;;20.90;99.90;;;;;;5061114;28;20192;-68
2021/07/04 08:49:17;;;;;;;4.67;4.37;;;20.90;99.90;;;;;;5063717;28;20768;-68
2021/07/04 08:51:47;;;;;;;4.70;4.40;;;20.90;99.90;;;;;;5063172;28;20239;-68
2021/07/04 08:54:16;;;;;;;5.37;5.00;;;20.90;99.90;;;;;;5061177;28;20218;-68
2021/07/04 08:56:50;;;;;;;5.07;4.73;;;21.00;99.90;;;;;;5063812;28;20216;-68
2021/07/04 08:59:18;;;;;;;5.77;5.17;;;20.90;99.90;;;;;;5063377;28;20246;-68
2021/07/04 09:01:48;;;;;;;5.30;4.80;;;21.10;99.90;;;;;;5063449;28;20208;-68
2021/07/04 09:04:19;;;;;;;4.40;4.10;;;21.20;99.90;;;;;;5066847;28;20192;-68
2021/07/04 09:06:50;;;;;;;4.40;4.10;;;21.40;99.90;;;;;;5060804;28;20228;-67
2021/07/04 09:09:24;;;;;;;4.80;4.47;;;21.40;99.90;;;;;;5066870;28;20202;-68
2021/07/04 09:12:00;;;;;;;5.23;4.80;;;21.40;99.90;;;;;;5059125;28;20279;-68
2021/07/04 09:14:32;;;;;;;5.37;4.87;;;21.50;99.90;;;;;;5057268;28;20227;-69
2021/07/04 09:17:15;;;;;;;4.47;4.20;;;21.50;99.90;;;;;;5061700;28;20286;-68
2021/07/04 09:19:55;;;;;;;4.20;3.90;;;21.60;99.90;;;;;;5061009;28;20189;-66
2021/07/04 09:22:28;;;;;;;4.17;3.87;;;21.60;99.90;;;;;;5078591;28;20650;-68
2021/07/04 09:25:08;;;;;;;4.27;4.07;;;21.60;99.90;;;;;;5064639;28;20196;-68
2021/07/04 09:27:38;;;;;;;3.47;3.30;;;21.50;99.90;;;;;;5061923;28;20275;-68
2021/07/04 09:30:11;;;;;;;4.03;3.67;;;21.70;99.90;;;;;;5079403;28;20228;-68
2021/07/04 09:32:48;;;;;;;3.20;3.10;;;21.90;99.90;;;;;;5068806;28;20650;-68
2021/07/04 09:35:20;;;;;;;3.37;3.13;;;22.00;99.90;;;;;;5061047;28;20192;-68
2021/07/04 09:37:51;;;;;;;6.73;3.47;;;22.10;99.90;;;;;;5057697;28;20245;-68
2021/07/04 09:40:24;;;;;;;4.07;3.77;;;22.20;99.90;;;;;;5064537;28;20193;-68
2021/07/04 09:43:00;;;;;;;3.80;3.50;;;22.00;99.90;;;;;;5062430;28;20311;-68
2021/07/04 09:45:42;;;;;;;3.40;3.17;;;21.80;99.90;;;;;;5063528;28;20287;-68
2021/07/04 09:48:10;;;;;;;3.57;3.33;;;21.60;99.90;;;;;;5058019;28;20259;-68
2021/07/04 09:50:41;;;;;;;3.73;3.53;;;21.50;99.90;;;;;;5060108;28;20234;-68
2021/07/04 09:53:14;;;;;;;3.90;3.60;;;21.30;99.90;;;;;;5060953;28;20539;-68
2021/07/04 09:55:43;;;;;;;4.70;4.30;;;21.20;99.90;;;;;;5063191;28;20192;-68
2021/07/04 09:58:14;;;;;;;4.37;3.97;;;21.20;99.90;;;;;;5063687;28;20312;-67
2021/07/04 10:00:45;;;;;;;4.97;3.87;;;21.00;99.90;;;;;;5064768;28;20330;-68
2021/07/04 10:03:18;;;;;;;4.60;3.90;;;20.90;99.90;;;;;;5065848;28;20590;-68
2021/07/04 10:06:01;;;;;;;10.20;2.23;;;20.80;99.90;;;;;;5058357;28;20180;-67
2021/07/04 10:08:32;;;;;;;2.37;1.30;;;19.60;99.90;;;;;;5061755;28;20224;-67
2021/07/04 10:11:02;;;;;;;5.10;2.40;;;17.90;99.90;;;;;;5065946;28;20200;-65
2021/07/04 10:13:36;;;;;;;5.87;2.10;;;16.90;99.90;;;;;;5064850;28;20222;-64
2021/07/04 10:16:06;;;;;;;2.90;1.60;;;16.40;99.90;;;;;;5067571;28;20203;-63
2021/07/04 10:18:37;;;;;;;4.47;1.83;;;15.80;99.90;;;;;;5066070;28;21041;-63
2021/07/04 10:21:06;;;;;;;4.30;2.40;;;15.50;99.90;;;;;;5069102;28;20208;-63
2021/07/04 10:23:37;;;;;;;2.30;2.00;;;15.50;99.90;;;;;;5065778;28;20220;-63
2021/07/04 10:26:06;;;;;;;2.20;1.93;;;15.60;99.90;;;;;;5066670;28;20693;-64
2021/07/04 10:28:40;;;;;;;2.10;1.70;;;15.50;99.90;;;;;;5068237;28;20283;-64
2021/07/04 10:31:10;;;;;;;2.87;1.40;;;15.40;99.90;;;;;;5068318;28;20320;-65
2021/07/04 10:33:39;;;;;;;1.67;1.60;;;15.30;99.90;;;;;;5067865;28;20204;-65
2021/07/04 10:36:13;;;;;;;2.20;2.13;;;15.40;99.90;;;;;;5065975;28;20964;-65
2021/07/04 10:38:51;;;;;;;3.90;3.57;;;15.50;99.90;;;;;;5064983;28;20200;-65
2021/07/04 10:41:23;;;;;;;5.87;4.27;;;15.60;99.90;;;;;;5064057;28;20281;-65
2021/07/04 10:44:08;;;;;;;6.87;4.37;;;15.70;99.90;;;;;;5063466;28;20204;-65
2021/07/04 10:47:11;;;;;;;5.23;4.67;;;15.80;99.90;;;;;;5057741;28;20725;-65
2021/07/04 10:49:47;;;;;;;6.33;5.63;;;15.80;99.90;;;;;;5065146;28;20199;-66
2021/07/04 10:52:21;;;;;;;9.10;6.17;;;15.80;99.90;;;;;;5067475;28;20231;-66
2021/07/04 10:54:55;;;;;;;8.27;5.80;;;15.80;99.90;;;;;;5064336;28;20226;-66
2021/07/04 10:57:31;;;;;;;7.13;5.70;;;15.80;99.90;;;;;;5067808;28;20195;-66
2021/07/04 11:00:19;;;;;;;6.80;5.90;;;15.80;99.90;;;;;;5069652;28;20347;-66
2021/07/04 11:02:50;;;;;;;8.87;6.07;;;15.80;99.90;;;;;;5067268;28;20224;-65
2021/07/04 11:05:46;;;;;;;10.67;6.57;;;15.80;99.90;;;;;;5064989;28;20611;-65
2021/07/04 11:08:17;;;;;;;7.43;5.10;;;15.80;99.90;;;;;;5063289;28;20204;-65
2021/07/04 11:11:01;;;;;;;7.13;5.03;;;15.70;99.90;;;;;;5067190;28;20220;-66
2021/07/04 11:13:34;;;;;;;5.80;5.23;;;15.70;99.90;;;;;;5065840;28;20202;-66
2021/07/04 11:16:10;;;;;;;5.47;4.97;;;15.70;99.90;;;;;;5064619;28;20312;-66
2021/07/04 11:18:44;;;;;;;5.30;4.30;;;15.70;99.90;;;;;;5064798;28;20220;-66
2021/07/04 11:21:14;;;;;;;4.90;4.50;;;15.60;99.90;;;;;;5068527;28;20192;-66
2021/07/04 11:23:43;;;;;;;3.83;3.53;;;15.60;99.90;;;;;;5065870;28;20219;-66
2021/07/04 11:26:17;;;;;;;4.53;3.30;;;15.50;99.90;;;;;;5065568;28;20747;-66
2021/07/04 11:28:47;;;;;;;3.80;3.50;;;15.50;99.90;;;;;;5058801;28;20216;-66
2021/07/04 11:31:31;;;;;;;4.13;3.47;;;15.50;99.90;;;;;;5067983;28;20315;-66
2021/07/04 11:34:07;;;;;;;9.00;3.93;;;15.50;99.90;;;;;;5068289;28;20467;-66
2021/07/04 11:36:36;;;;;;;4.17;3.80;;;15.50;99.90;;;;;;5067632;28;20216;-66
2021/07/04 11:39:08;;;;;;;4.43;3.47;;;15.60;99.90;;;;;;5068218;28;20265;-66
2021/07/04 11:41:40;;;;;;;5.03;3.03;;;15.60;99.90;;;;;;5067002;28;20231;-66
2021/07/04 11:44:10;;;;;;;3.50;3.20;;;15.60;99.90;;;;;;5067103;28;20193;-66
2021/07/04 11:46:41;;;;;;;3.00;2.70;;;15.60;99.90;;;;;;5069142;28;20601;-66
2021/07/04 11:49:11;;;;;;;3.53;2.80;;;15.70;99.90;;;;;;5067932;28;20504;-66
2021/07/04 11:51:45;;;;;;;4.63;3.13;;;15.80;99.90;;;;;;5053224;28;20556;-66
2021/07/04 11:54:17;;;;;;;3.00;2.80;;;15.90;99.90;;;;;;5059828;28;20728;-67
2021/07/04 11:56:47;;;;;;;3.30;3.00;;;16.00;99.90;;;;;;5066670;28;20250;-66
2021/07/04 11:59:21;;;;;;;2.70;2.50;;;16.20;99.90;;;;;;5064361;28;20243;-67
2021/07/04 12:01:56;;;;;;;2.57;2.37;;;16.20;99.90;;;;;;5063625;28;20204;-67
2021/07/04 12:04:33;;;;;;;3.00;2.70;;;16.20;99.90;;;;;;5063395;28;20239;-67
2021/07/04 12:07:05;;;;;;;4.10;2.40;;;16.40;99.90;;;;;;5060279;28;20203;-67
2021/07/04 12:09:45;;;;;;;2.53;2.40;;;16.50;99.90;;;;;;5066638;28;20219;-67
2021/07/04 12:12:23;;;;;;;2.33;2.13;;;16.70;99.90;;;;;;5066705;28;20200;-67
2021/07/04 12:14:52;;;;;;;2.30;2.30;;;16.90;99.90;;;;;;5065422;28;20225;-67
2021/07/04 12:17:43;;;;;;;2.03;1.97;;;17.10;99.90;;;;;;5065747;28;20200;-68
2021/07/04 12:20:17;;;;;;;2.13;1.90;;;17.20;99.90;;;;;;5066195;28;20227;-67
2021/07/04 12:22:50;;;;;;;1.53;1.50;;;17.50;99.90;;;;;;5067266;28;20187;-67
2021/07/04 12:25:22;;;;;;;1.40;1.40;;;17.70;99.90;;;;;;5062111;28;20658;-67
2021/07/04 12:27:52;;;;;;;1.50;1.50;;;17.90;99.90;;;;;;5074119;28;20195;-67
2021/07/04 12:30:23;;;;;;;1.70;1.60;;;18.00;99.90;;;;;;5066872;28;20224;-67
2021/07/04 12:33:03;;;;;;;1.60;1.50;;;18.00;99.90;;;;;;5065289;28;20209;-67
2021/07/04 12:35:39;;;;;;;1.30;1.30;;;17.90;99.90;;;;;;5066705;28;20223;-67
2021/07/04 12:38:11;;;;;;;1.37;1.27;;;17.90;99.90;;;;;;5065931;28;20204;-67
2021/07/04 12:40:53;;;;;;;1.40;1.40;;;18.00;99.90;;;;;;5056977;28;20204;-68
2021/07/04 12:43:23;;;;;;;1.10;1.10;;;18.10;99.90;;;;;;5060544;28;20254;-67
2021/07/04 12:45:54;;;;;;;1.10;1.10;;;18.00;99.90;;;;;;5067227;28;20275;-68
2021/07/04 12:48:30;;;;;;;1.30;1.20;;;18.10;99.90;;;;;;5065483;28;20643;-68
2021/07/04 12:51:01;;;;;;;2.63;1.10;;;18.10;99.90;;;;;;5063213;28;20735;-68
2021/07/04 12:53:39;;;;;;;1.00;1.00;;;18.20;99.90;;;;;;5051037;28;20731;-68
2021/07/04 12:56:21;;;;;;;1.77;1.10;;;18.40;99.90;;;;;;5069105;28;20187;-68